Time;durP1;ratioP1;P1;durP2;ratioP2;P2;SDS_P1;SDS_P2;PMS_P1;PMS_P2;Temp;Humidity;BMP_temperature;BMP_pressure;BME280_temperature;BME280_humidity;BME280_pressure;Samples;Min_cycle;Max_cycle;Signal;HPM_P1;HPM_P2
2022/12/13 00:00:43;;;;;;;15.18;8.68;;;2.70;93.60;;;;;;5027638;28;20072;-76
2022/12/13 00:03:29;;;;;;;12.25;7.38;;;2.60;93.70;;;;;;5031649;28;20583;-75
2022/12/13 00:06:14;;;;;;;17.75;8.95;;;2.60;93.80;;;;;;5031270;28;20037;-76
2022/12/13 00:09:01;;;;;;;11.38;7.32;;;2.60;93.80;;;;;;5032010;28;20065;-75
2022/12/13 00:11:48;;;;;;;14.45;8.88;;;2.70;93.80;;;;;;5013359;28;20547;-75
2022/12/13 00:14:34;;;;;;;13.02;7.78;;;2.70;93.80;;;;;;5017950;28;20037;-77
2022/12/13 00:17:20;;;;;;;14.13;9.18;;;2.70;93.80;;;;;;5033892;28;20025;-74
2022/12/13 00:20:06;;;;;;;14.18;8.93;;;2.70;93.80;;;;;;5030960;28;20042;-75
2022/12/13 00:22:52;;;;;;;16.67;10.05;;;2.80;93.80;;;;;;5032555;28;20121;-74
2022/12/13 00:25:38;;;;;;;13.07;8.27;;;2.80;93.80;;;;;;5030903;28;20447;-75
2022/12/13 00:28:24;;;;;;;16.75;10.13;;;2.80;93.70;;;;;;5031941;28;20026;-74
2022/12/13 00:31:10;;;;;;;14.98;9.13;;;2.80;93.70;;;;;;5030182;28;20064;-75
2022/12/13 00:34:00;;;;;;;14.85;9.57;;;2.80;93.70;;;;;;5028615;28;20095;-74
2022/12/13 00:36:47;;;;;;;15.95;10.07;;;2.80;93.70;;;;;;5030908;28;20057;-75
2022/12/13 00:39:32;;;;;;;14.02;8.57;;;2.80;93.70;;;;;;5042635;28;20116;-75
2022/12/13 00:42:18;;;;;;;16.27;9.73;;;2.70;93.60;;;;;;5030883;28;20026;-75
2022/12/13 00:45:05;;;;;;;14.18;8.73;;;2.70;93.50;;;;;;5030331;28;20029;-75
2022/12/13 00:47:51;;;;;;;14.52;8.23;;;2.60;93.50;;;;;;5032247;28;20377;-75
2022/12/13 00:50:37;;;;;;;13.35;8.27;;;2.60;93.40;;;;;;5031575;28;20038;-74
2022/12/13 00:53:23;;;;;;;15.77;9.07;;;2.60;93.60;;;;;;5028757;28;20033;-75
2022/12/13 00:56:11;;;;;;;11.52;7.75;;;2.60;93.50;;;;;;5024996;28;20064;-74
2022/12/13 00:58:58;;;;;;;14.43;8.30;;;2.60;93.60;;;;;;5023183;28;20033;-75
2022/12/13 01:01:44;;;;;;;15.10;8.98;;;2.50;93.50;;;;;;5044302;28;20048;-75
2022/12/13 01:04:30;;;;;;;17.60;9.38;;;2.50;93.40;;;;;;5030633;28;20104;-74
2022/12/13 01:07:16;;;;;;;14.43;8.90;;;2.50;93.40;;;;;;5032022;28;20032;-74
2022/12/13 01:10:04;;;;;;;12.60;8.00;;;2.60;93.50;;;;;;5020392;28;20068;-75
2022/12/13 01:12:50;;;;;;;11.82;7.53;;;2.50;93.40;;;;;;5022617;28;20095;-75
2022/12/13 01:15:43;;;;;;;13.50;8.25;;;2.50;93.40;;;;;;5025760;28;20022;-74
2022/12/13 01:18:29;;;;;;;15.95;8.88;;;2.50;93.40;;;;;;5029579;28;20032;-74
2022/12/13 01:21:21;;;;;;;15.63;8.93;;;2.50;93.50;;;;;;5030977;28;20017;-73
2022/12/13 01:24:07;;;;;;;14.48;8.80;;;2.60;93.70;;;;;;5030278;28;20037;-74
2022/12/13 01:26:53;;;;;;;15.15;8.60;;;2.60;93.50;;;;;;5031198;28;20033;-74
2022/12/13 01:29:39;;;;;;;16.38;9.65;;;2.60;93.50;;;;;;5031060;28;20026;-74
2022/12/13 01:32:25;;;;;;;17.10;10.15;;;2.50;93.30;;;;;;5031594;28;20040;-75
2022/12/13 01:35:12;;;;;;;15.60;9.88;;;2.60;93.30;;;;;;5029594;28;20025;-75
2022/12/13 01:37:58;;;;;;;16.35;11.13;;;2.60;93.30;;;;;;5032295;28;20339;-75
2022/12/13 01:40:46;;;;;;;15.07;8.40;;;2.60;93.30;;;;;;5012590;28;20036;-75
2022/12/13 01:43:35;;;;;;;13.65;8.38;;;2.60;93.30;;;;;;5027522;28;20022;-75
2022/12/13 01:46:21;;;;;;;14.32;7.97;;;2.60;93.30;;;;;;5025032;28;20499;-75
2022/12/13 01:49:12;;;;;;;12.70;9.02;;;2.60;93.30;;;;;;5029042;28;20408;-75
2022/12/13 01:52:04;;;;;;;16.25;8.55;;;2.50;93.30;;;;;;5029221;28;20029;-75
2022/12/13 01:54:54;;;;;;;15.52;9.32;;;2.60;93.40;;;;;;5030528;28;20069;-75
2022/12/13 01:57:43;;;;;;;13.50;8.73;;;2.60;93.40;;;;;;5031004;28;20041;-75
2022/12/13 02:00:29;;;;;;;16.35;9.70;;;2.60;93.50;;;;;;5030961;28;20125;-75
2022/12/13 02:03:17;;;;;;;15.25;9.07;;;2.60;93.50;;;;;;5024127;28;20513;-76
2022/12/13 02:06:11;;;;;;;15.38;8.63;;;2.60;93.40;;;;;;5032017;28;20397;-75
2022/12/13 02:08:58;;;;;;;15.15;9.07;;;2.60;93.50;;;;;;5033505;28;20519;-76
2022/12/13 02:11:45;;;;;;;14.82;8.25;;;2.60;93.40;;;;;;5033998;28;20041;-79
2022/12/13 02:14:34;;;;;;;14.15;9.35;;;2.60;93.40;;;;;;5033920;28;20037;-78
2022/12/13 02:17:39;;;;;;;12.95;8.30;;;2.60;93.40;;;;;;5035432;28;20026;-77
2022/12/13 02:20:58;;;;;;;15.82;8.85;;;2.60;93.50;;;;;;5033793;28;20032;-78
2022/12/13 02:24:15;;;;;;;12.95;8.05;;;2.60;93.50;;;;;;5024361;28;20550;-78
2022/12/13 02:27:22;;;;;;;15.40;8.57;;;2.60;93.60;;;;;;5034077;28;20220;-78
2022/12/13 02:30:17;;;;;;;13.43;8.23;;;2.60;93.60;;;;;;5021864;28;20467;-78
2022/12/13 02:33:26;;;;;;;13.38;7.82;;;2.70;93.60;;;;;;5033145;28;20045;-77
2022/12/13 02:36:21;;;;;;;14.93;8.25;;;2.70;93.60;;;;;;5030614;28;20032;-78
2022/12/13 02:39:17;;;;;;;13.90;8.98;;;2.70;93.60;;;;;;5032334;28;20048;-78
2022/12/13 02:42:46;;;;;;;12.40;8.50;;;2.70;93.50;;;;;;5033924;28;20346;-77
2022/12/13 02:45:47;;;;;;;15.05;8.95;;;2.70;93.50;;;;;;5025527;28;20041;-78
2022/12/13 02:48:38;;;;;;;16.35;9.63;;;2.70;93.50;;;;;;5032844;28;20476;-78
2022/12/13 02:51:25;;;;;;;12.57;8.57;;;2.60;93.50;;;;;;5032787;28;20480;-78
2022/12/13 02:54:11;;;;;;;14.00;9.00;;;2.60;93.50;;;;;;5032741;28;20038;-78
2022/12/13 02:56:59;;;;;;;15.65;8.80;;;2.70;93.50;;;;;;5034409;28;20473;-78
2022/12/13 02:59:45;;;;;;;16.65;9.38;;;2.60;93.50;;;;;;5020118;28;20282;-77
2022/12/13 03:03:09;;;;;;;15.73;9.60;;;2.60;93.50;;;;;;5030565;28;20041;-77
2022/12/13 03:06:28;;;;;;;15.02;9.35;;;2.70;93.50;;;;;;5037651;28;20021;-77
2022/12/13 03:09:44;;;;;;;14.43;9.20;;;2.60;93.50;;;;;;5032017;28;20017;-77
2022/12/13 03:16:19;;;;;;;15.50;8.80;;;2.60;93.60;;;;;;5032011;28;20120;-77
2022/12/13 03:19:08;;;;;;;14.35;9.57;;;2.60;93.60;;;;;;5032156;28;20052;-76
2022/12/13 03:21:54;;;;;;;14.32;8.82;;;2.60;93.60;;;;;;5031995;28;20464;-77
2022/12/13 03:24:40;;;;;;;16.70;9.05;;;2.60;93.60;;;;;;5031522;28;20025;-77
2022/12/13 03:27:26;;;;;;;15.95;10.45;;;2.70;93.50;;;;;;5013308;28;20060;-77
2022/12/13 03:30:12;;;;;;;13.48;9.23;;;2.60;93.50;;;;;;5022430;28;20037;-77
2022/12/13 03:32:59;;;;;;;15.07;9.07;;;2.60;93.50;;;;;;5032244;28;20187;-77
2022/12/13 03:35:45;;;;;;;16.02;9.52;;;2.70;93.60;;;;;;5032235;28;20440;-76
2022/12/13 03:38:31;;;;;;;13.82;8.48;;;2.60;93.50;;;;;;5034245;28;20033;-77
2022/12/13 03:41:21;;;;;;;13.82;9.20;;;2.70;93.60;;;;;;5030204;28;20473;-75
2022/12/13 03:44:07;;;;;;;14.80;8.70;;;2.70;93.60;;;;;;5022253;28;20040;-72
2022/12/13 03:46:53;;;;;;;14.98;8.45;;;2.70;93.60;;;;;;5045164;28;20109;-73
2022/12/13 03:49:39;;;;;;;15.90;9.27;;;2.70;93.60;;;;;;5032028;28;20036;-73
2022/12/13 03:52:25;;;;;;;15.23;9.10;;;2.70;93.60;;;;;;5029583;28;20116;-72
2022/12/13 03:55:11;;;;;;;16.90;10.18;;;2.60;93.60;;;;;;5031921;28;20463;-72
2022/12/13 03:57:57;;;;;;;16.27;10.20;;;2.60;93.70;;;;;;5030939;28;20345;-72
2022/12/13 04:00:44;;;;;;;14.75;8.40;;;2.70;93.80;;;;;;5030216;28;20492;-71
2022/12/13 04:03:30;;;;;;;16.98;9.88;;;2.70;93.80;;;;;;5032913;28;20055;-71
2022/12/13 04:06:16;;;;;;;15.68;9.55;;;2.70;93.90;;;;;;5032818;28;20370;-71
2022/12/13 04:09:02;;;;;;;13.68;8.57;;;2.70;93.80;;;;;;5032557;28;20030;-71
2022/12/13 04:15:04;;;;;;;15.50;9.60;;;2.70;93.70;;;;;;4986275;28;20051;-71
2022/12/13 04:17:50;;;;;;;14.90;8.90;;;2.70;93.70;;;;;;5031800;28;20033;-72
2022/12/13 04:20:36;;;;;;;16.15;9.32;;;2.70;93.70;;;;;;5031354;28;20116;-71
2022/12/13 04:23:22;;;;;;;15.80;9.65;;;2.70;93.70;;;;;;5031806;28;20029;-71
2022/12/13 04:26:08;;;;;;;18.58;9.95;;;2.70;93.70;;;;;;5030944;28;20103;-71
2022/12/13 04:28:55;;;;;;;13.98;8.85;;;2.70;93.70;;;;;;5028490;28;20400;-71
2022/12/13 04:31:41;;;;;;;17.05;9.75;;;2.70;93.80;;;;;;5030670;28;20476;-75
2022/12/13 04:34:27;;;;;;;15.30;9.32;;;2.70;93.70;;;;;;5022784;28;20042;-75
2022/12/13 04:37:13;;;;;;;16.08;8.95;;;2.70;93.70;;;;;;5031004;28;20534;-75
2022/12/13 04:39:59;;;;;;;14.63;9.63;;;2.70;93.80;;;;;;5028582;28;20405;-75
2022/12/13 04:42:45;;;;;;;15.93;9.35;;;2.70;93.70;;;;;;5031233;28;20037;-76
2022/12/13 04:45:31;;;;;;;15.85;9.35;;;2.70;93.70;;;;;;5032444;28;20508;-75
2022/12/13 04:48:16;;;;;;;13.48;8.63;;;2.70;93.70;;;;;;5030947;28;20040;-75
2022/12/13 04:51:02;;;;;;;17.23;9.60;;;2.70;93.70;;;;;;5030980;28;20409;-70
2022/12/13 04:53:49;;;;;;;14.48;8.43;;;2.80;93.70;;;;;;5028117;28;20029;-71
2022/12/13 04:56:36;;;;;;;16.02;9.65;;;2.80;93.70;;;;;;5031599;28;20030;-71
2022/12/13 04:59:22;;;;;;;14.52;8.65;;;2.80;93.70;;;;;;5025571;28;20033;-71
2022/12/13 05:02:09;;;;;;;12.27;8.50;;;2.80;93.70;;;;;;5028720;28;20630;-72
2022/12/13 05:04:55;;;;;;;10.65;7.65;;;2.90;93.60;;;;;;5025099;28;20030;-72
2022/12/13 05:07:41;;;;;;;13.52;8.60;;;2.90;93.60;;;;;;5014740;28;20068;-72
2022/12/13 05:10:27;;;;;;;14.57;9.07;;;2.90;93.60;;;;;;5030142;28;20021;-72
2022/12/13 05:13:13;;;;;;;16.08;9.43;;;2.90;93.60;;;;;;5030912;28;20076;-71
2022/12/13 05:16:01;;;;;;;13.32;8.50;;;2.90;93.60;;;;;;5030237;28;20472;-71
2022/12/13 05:18:47;;;;;;;15.90;9.18;;;2.80;93.60;;;;;;5029557;28;20084;-71
2022/12/13 05:21:33;;;;;;;15.10;9.40;;;2.80;93.60;;;;;;5027078;28;20150;-71
2022/12/13 05:24:19;;;;;;;14.45;8.85;;;2.80;93.60;;;;;;5031355;28;20056;-71
2022/12/13 05:27:05;;;;;;;12.60;8.32;;;2.80;93.60;;;;;;5029233;28;20029;-71
2022/12/13 05:29:54;;;;;;;12.52;7.85;;;2.80;93.60;;;;;;5025615;28;20018;-71
2022/12/13 05:32:40;;;;;;;14.23;9.40;;;2.90;93.60;;;;;;5028651;28;20435;-71
2022/12/13 05:35:26;;;;;;;16.70;9.27;;;2.90;93.60;;;;;;5031035;28;20515;-71
2022/12/13 05:38:12;;;;;;;13.38;8.25;;;2.90;93.50;;;;;;5029772;28;20066;-71
2022/12/13 05:40:58;;;;;;;14.13;8.18;;;2.90;93.50;;;;;;5032758;28;20034;-70
2022/12/13 05:43:44;;;;;;;17.10;9.15;;;2.90;93.40;;;;;;5034058;28;20033;-71
2022/12/13 05:46:30;;;;;;;12.40;8.60;;;2.90;93.40;;;;;;5035608;28;20052;-72
2022/12/13 05:49:16;;;;;;;13.32;8.02;;;2.90;93.40;;;;;;5035518;28;20116;-71
2022/12/13 05:52:02;;;;;;;13.02;8.93;;;3.00;93.40;;;;;;5020396;28;20029;-76
2022/12/13 05:54:53;;;;;;;13.43;7.90;;;3.00;93.30;;;;;;5034923;28;20041;-73
2022/12/13 05:57:39;;;;;;;13.65;8.65;;;3.00;93.30;;;;;;5032193;28;20104;-76
2022/12/13 06:00:25;;;;;;;12.80;7.63;;;3.00;93.50;;;;;;5034307;28;20427;-76
2022/12/13 06:03:11;;;;;;;17.10;9.30;;;3.00;93.30;;;;;;5032177;28;20108;-72
